sensor_id;sensor_type;location;lat;lon;timestamp;temperature;humidity
56137;DHT22;42008;52.934;5.884;2022-10-16T00:00:32;13.40;99.90
56137;DHT22;42008;52.934;5.884;2022-10-16T00:02:58;13.10;99.90
56137;DHT22;42008;52.934;5.884;2022-10-16T00:05:23;13.50;99.90
56137;DHT22;42008;52.934;5.884;2022-10-16T00:07:49;13.20;99.90
56137;DHT22;42008;52.934;5.884;2022-10-16T00:10:15;13.40;99.90
56137;DHT22;42008;52.934;5.884;2022-10-16T00:12:40;14.80;99.90
56137;DHT22;42008;52.934;5.884;2022-10-16T00:15:06;13.40;99.90
56137;DHT22;42008;52.934;5.884;2022-10-16T00:17:32;14.40;99.90
56137;DHT22;42008;52.934;5.884;2022-10-16T00:19:57;14.70;99.90
56137;DHT22;42008;52.934;5.884;2022-10-16T00:22:23;14.90;99.90
56137;DHT22;42008;52.934;5.884;2022-10-16T00:24:49;13.80;99.90
56137;DHT22;42008;52.934;5.884;2022-10-16T00:27:15;15.00;99.90
56137;DHT22;42008;52.934;5.884;2022-10-16T00:29:40;13.80;99.90
56137;DHT22;42008;52.934;5.884;2022-10-16T00:32:06;14.70;99.90
56137;DHT22;42008;52.934;5.884;2022-10-16T00:34:31;15.10;99.90
56137;DHT22;42008;52.934;5.884;2022-10-16T00:36:57;14.20;99.90
56137;DHT22;42008;52.934;5.884;2022-10-16T00:39:22;14.10;99.90
56137;DHT22;42008;52.934;5.884;2022-10-16T00:41:49;13.80;99.90
56137;DHT22;42008;52.934;5.884;2022-10-16T00:47:10;14.20;99.90
56137;DHT22;42008;52.934;5.884;2022-10-16T00:49:38;13.70;99.90
56137;DHT22;42008;52.934;5.884;2022-10-16T00:52:04;13.50;99.90
56137;DHT22;42008;52.934;5.884;2022-10-16T00:54:31;13.60;99.90
56137;DHT22;42008;52.934;5.884;2022-10-16T00:57:00;14.00;99.90
56137;DHT22;42008;52.934;5.884;2022-10-16T00:59:32;13.60;99.90
56137;DHT22;42008;52.934;5.884;2022-10-16T01:01:58;13.70;99.90
56137;DHT22;42008;52.934;5.884;2022-10-16T01:04:25;13.90;99.90
56137;DHT22;42008;52.934;5.884;2022-10-16T01:06:59;13.30;99.90
56137;DHT22;42008;52.934;5.884;2022-10-16T01:12:16;13.50;99.90
56137;DHT22;42008;52.934;5.884;2022-10-16T01:15:14;13.30;99.90
56137;DHT22;42008;52.934;5.884;2022-10-16T01:17:49;14.40;99.90
56137;DHT22;42008;52.934;5.884;2022-10-16T01:20:28;14.00;99.90
56137;DHT22;42008;52.934;5.884;2022-10-16T01:23:15;14.10;99.90
56137;DHT22;42008;52.934;5.884;2022-10-16T01:26:05;13.10;99.90
56137;DHT22;42008;52.934;5.884;2022-10-16T01:28:38;14.80;99.90
56137;DHT22;42008;52.934;5.884;2022-10-16T01:31:05;13.60;99.90
56137;DHT22;42008;52.934;5.884;2022-10-16T01:33:40;13.40;99.90
56137;DHT22;42008;52.934;5.884;2022-10-16T01:36:14;13.20;99.90
56137;DHT22;42008;52.934;5.884;2022-10-16T01:38:43;13.60;99.90
56137;DHT22;42008;52.934;5.884;2022-10-16T01:43:49;13.50;99.90
56137;DHT22;42008;52.934;5.884;2022-10-16T01:46:17;13.20;99.90
56137;DHT22;42008;52.934;5.884;2022-10-16T01:48:43;13.70;99.90
56137;DHT22;42008;52.934;5.884;2022-10-16T01:51:12;13.60;99.90
56137;DHT22;42008;52.934;5.884;2022-10-16T01:53:40;13.50;99.90
56137;DHT22;42008;52.934;5.884;2022-10-16T01:56:09;13.20;99.90
56137;DHT22;42008;52.934;5.884;2022-10-16T01:58:42;13.40;99.90
56137;DHT22;42008;52.934;5.884;2022-10-16T02:01:10;13.30;99.90
56137;DHT22;42008;52.934;5.884;2022-10-16T02:03:39;13.40;99.90
56137;DHT22;42008;52.934;5.884;2022-10-16T02:06:07;13.30;99.90
56137;DHT22;42008;52.934;5.884;2022-10-16T02:08:32;13.10;99.90
56137;DHT22;42008;52.934;5.884;2022-10-16T02:11:00;13.50;99.90
56137;DHT22;42008;52.934;5.884;2022-10-16T02:13:31;14.00;99.90
56137;DHT22;42008;52.934;5.884;2022-10-16T02:15:58;13.20;99.90
56137;DHT22;42008;52.934;5.884;2022-10-16T02:18:24;13.80;99.90
56137;DHT22;42008;52.934;5.884;2022-10-16T02:21:08;13.50;99.90
56137;DHT22;42008;52.934;5.884;2022-10-16T02:26:51;12.90;99.90
56137;DHT22;42008;52.934;5.884;2022-10-16T02:29:17;13.80;99.90
56137;DHT22;42008;52.934;5.884;2022-10-16T02:31:48;13.50;99.90
56137;DHT22;42008;52.934;5.884;2022-10-16T02:34:16;13.10;99.90
56137;DHT22;42008;52.934;5.884;2022-10-16T02:36:44;13.00;99.90
56137;DHT22;42008;52.934;5.884;2022-10-16T02:39:11;13.40;99.90
56137;DHT22;42008;52.934;5.884;2022-10-16T02:41:37;13.10;99.90
56137;DHT22;42008;52.934;5.884;2022-10-16T02:44:03;13.60;99.90
56137;DHT22;42008;52.934;5.884;2022-10-16T02:46:29;13.00;99.90
56137;DHT22;42008;52.934;5.884;2022-10-16T02:48:54;12.90;99.90
56137;DHT22;42008;52.934;5.884;2022-10-16T02:51:20;13.40;99.90
56137;DHT22;42008;52.934;5.884;2022-10-16T02:53:45;13.40;99.90
56137;DHT22;42008;52.934;5.884;2022-10-16T02:56:11;14.10;99.90
56137;DHT22;42008;52.934;5.884;2022-10-16T02:58:37;13.10;99.90
56137;DHT22;42008;52.934;5.884;2022-10-16T03:01:02;14.30;99.90
56137;DHT22;42008;52.934;5.884;2022-10-16T03:03:28;13.80;99.90
56137;DHT22;42008;52.934;5.884;2022-10-16T03:05:54;13.20;99.90
56137;DHT22;42008;52.934;5.884;2022-10-16T03:08:19;13.10;99.90
56137;DHT22;42008;52.934;5.884;2022-10-16T03:10:49;13.00;99.90
56137;DHT22;42008;52.934;5.884;2022-10-16T03:13:14;13.10;99.90
56137;DHT22;42008;52.934;5.884;2022-10-16T03:15:40;13.30;99.90
56137;DHT22;42008;52.934;5.884;2022-10-16T03:18:06;13.30;99.90
56137;DHT22;42008;52.934;5.884;2022-10-16T03:20:31;13.40;99.90
56137;DHT22;42008;52.934;5.884;2022-10-16T03:22:57;13.40;99.90
56137;DHT22;42008;52.934;5.884;2022-10-16T03:25:22;13.30;99.90
56137;DHT22;42008;52.934;5.884;2022-10-16T03:27:48;13.30;99.90
56137;DHT22;42008;52.934;5.884;2022-10-16T03:30:13;13.20;99.90
56137;DHT22;42008;52.934;5.884;2022-10-16T03:32:39;12.50;99.90
56137;DHT22;42008;52.934;5.884;2022-10-16T03:35:05;12.90;99.90
56137;DHT22;42008;52.934;5.884;2022-10-16T03:37:31;12.60;99.90
56137;DHT22;42008;52.934;5.884;2022-10-16T03:39:56;12.90;99.90
56137;DHT22;42008;52.934;5.884;2022-10-16T03:42:22;13.50;99.90
56137;DHT22;42008;52.934;5.884;2022-10-16T03:44:47;13.10;99.90
56137;DHT22;42008;52.934;5.884;2022-10-16T03:47:13;13.60;99.90
56137;DHT22;42008;52.934;5.884;2022-10-16T03:49:39;13.70;99.90
56137;DHT22;42008;52.934;5.884;2022-10-16T03:52:04;13.70;99.90
56137;DHT22;42008;52.934;5.884;2022-10-16T03:54:30;13.40;99.90
56137;DHT22;42008;52.934;5.884;2022-10-16T03:56:55;13.50;99.90
56137;DHT22;42008;52.934;5.884;2022-10-16T03:59:21;13.60;99.90
56137;DHT22;42008;52.934;5.884;2022-10-16T04:01:46;13.40;99.90
56137;DHT22;42008;52.934;5.884;2022-10-16T04:04:12;12.90;99.90
56137;DHT22;42008;52.934;5.884;2022-10-16T04:06:37;13.30;99.90
56137;DHT22;42008;52.934;5.884;2022-10-16T04:09:03;14.70;99.90
56137;DHT22;42008;52.934;5.884;2022-10-16T04:11:29;13.00;99.90
56137;DHT22;42008;52.934;5.884;2022-10-16T04:13:56;13.00;99.90
56137;DHT22;42008;52.934;5.884;2022-10-16T04:16:21;14.90;99.90
56137;DHT22;42008;52.934;5.884;2022-10-16T04:18:47;13.50;99.90
56137;DHT22;42008;52.934;5.884;2022-10-16T04:21:12;13.30;99.90
56137;DHT22;42008;52.934;5.884;2022-10-16T04:23:38;13.70;99.90
56137;DHT22;42008;52.934;5.884;2022-10-16T04:26:04;13.00;99.90
56137;DHT22;42008;52.934;5.884;2022-10-16T04:28:30;14.20;99.90
56137;DHT22;42008;52.934;5.884;2022-10-16T04:30:55;14.00;99.90
56137;DHT22;42008;52.934;5.884;2022-10-16T04:33:21;13.40;99.90
56137;DHT22;42008;52.934;5.884;2022-10-16T04:35:47;13.50;99.90
56137;DHT22;42008;52.934;5.884;2022-10-16T04:38:12;13.60;99.90
56137;DHT22;42008;52.934;5.884;2022-10-16T04:40:38;14.00;99.90
56137;DHT22;42008;52.934;5.884;2022-10-16T04:43:04;14.30;99.90
56137;DHT22;42008;52.934;5.884;2022-10-16T04:45:30;13.70;99.90
56137;DHT22;42008;52.934;5.884;2022-10-16T04:47:57;13.60;99.90
56137;DHT22;42008;52.934;5.884;2022-10-16T04:50:23;13.50;99.90
56137;DHT22;42008;52.934;5.884;2022-10-16T04:52:48;13.60;99.90
56137;DHT22;42008;52.934;5.884;2022-10-16T04:55:14;13.50;99.90
56137;DHT22;42008;52.934;5.884;2022-10-16T04:57:40;13.70;99.90
56137;DHT22;42008;52.934;5.884;2022-10-16T05:00:07;13.90;99.90
56137;DHT22;42008;52.934;5.884;2022-10-16T05:02:33;14.30;99.90
56137;DHT22;42008;52.934;5.884;2022-10-16T05:04:59;13.70;99.90
56137;DHT22;42008;52.934;5.884;2022-10-16T05:07:25;15.00;99.90
56137;DHT22;42008;52.934;5.884;2022-10-16T05:09:50;14.10;99.90
56137;DHT22;42008;52.934;5.884;2022-10-16T05:12:16;13.50;99.90
56137;DHT22;42008;52.934;5.884;2022-10-16T05:14:42;15.20;99.90
56137;DHT22;42008;52.934;5.884;2022-10-16T05:17:07;14.50;99.90
56137;DHT22;42008;52.934;5.884;2022-10-16T05:19:33;14.60;99.90
56137;DHT22;42008;52.934;5.884;2022-10-16T05:21:58;14.70;99.90
56137;DHT22;42008;52.934;5.884;2022-10-16T05:24:24;14.00;99.90
56137;DHT22;42008;52.934;5.884;2022-10-16T05:26:50;13.80;99.90
56137;DHT22;42008;52.934;5.884;2022-10-16T05:29:16;14.30;99.90
56137;DHT22;42008;52.934;5.884;2022-10-16T05:31:41;15.40;99.90
56137;DHT22;42008;52.934;5.884;2022-10-16T05:34:07;14.90;99.90
56137;DHT22;42008;52.934;5.884;2022-10-16T05:36:32;15.20;99.90
56137;DHT22;42008;52.934;5.884;2022-10-16T05:38:58;15.00;99.90
56137;DHT22;42008;52.934;5.884;2022-10-16T05:41:23;13.80;99.90
56137;DHT22;42008;52.934;5.884;2022-10-16T05:43:51;13.80;99.90
56137;DHT22;42008;52.934;5.884;2022-10-16T05:46:17;13.50;99.90
56137;DHT22;42008;52.934;5.884;2022-10-16T05:48:43;13.80;99.90
56137;DHT22;42008;52.934;5.884;2022-10-16T05:51:11;13.60;99.90
56137;DHT22;42008;52.934;5.884;2022-10-16T05:53:38;13.90;99.90
56137;DHT22;42008;52.934;5.884;2022-10-16T05:56:06;15.10;99.90
56137;DHT22;42008;52.934;5.884;2022-10-16T05:58:36;14.30;99.90
56137;DHT22;42008;52.934;5.884;2022-10-16T06:01:07;14.90;99.90
56137;DHT22;42008;52.934;5.884;2022-10-16T06:03:33;13.70;99.90
56137;DHT22;42008;52.934;5.884;2022-10-16T06:05:59;13.80;99.90
56137;DHT22;42008;52.934;5.884;2022-10-16T06:08:32;15.30;99.90
56137;DHT22;42008;52.934;5.884;2022-10-16T06:11:06;13.90;99.90
56137;DHT22;42008;52.934;5.884;2022-10-16T06:13:32;14.50;99.90
56137;DHT22;42008;52.934;5.884;2022-10-16T06:15:59;13.60;99.90
56137;DHT22;42008;52.934;5.884;2022-10-16T06:18:26;13.80;99.90
56137;DHT22;42008;52.934;5.884;2022-10-16T06:20:52;13.80;99.90
56137;DHT22;42008;52.934;5.884;2022-10-16T06:23:17;15.00;99.90
56137;DHT22;42008;52.934;5.884;2022-10-16T06:25:43;14.00;99.90
56137;DHT22;42008;52.934;5.884;2022-10-16T06:28:08;14.10;99.90
56137;DHT22;42008;52.934;5.884;2022-10-16T06:30:34;15.20;99.90
56137;DHT22;42008;52.934;5.884;2022-10-16T06:32:59;13.70;99.90
56137;DHT22;42008;52.934;5.884;2022-10-16T06:35:25;15.20;99.90
56137;DHT22;42008;52.934;5.884;2022-10-16T06:37:53;15.00;99.90
56137;DHT22;42008;52.934;5.884;2022-10-16T06:40:18;14.50;99.90
56137;DHT22;42008;52.934;5.884;2022-10-16T06:42:44;15.50;99.90
56137;DHT22;42008;52.934;5.884;2022-10-16T06:45:10;15.00;99.90
56137;DHT22;42008;52.934;5.884;2022-10-16T06:47:36;15.10;99.90
56137;DHT22;42008;52.934;5.884;2022-10-16T06:50:02;13.80;99.90
56137;DHT22;42008;52.934;5.884;2022-10-16T06:52:29;14.60;99.90
56137;DHT22;42008;52.934;5.884;2022-10-16T06:54:54;15.20;99.90
56137;DHT22;42008;52.934;5.884;2022-10-16T06:57:20;15.70;99.90
56137;DHT22;42008;52.934;5.884;2022-10-16T06:59:45;14.30;99.90
56137;DHT22;42008;52.934;5.884;2022-10-16T07:02:11;13.90;99.90
56137;DHT22;42008;52.934;5.884;2022-10-16T07:04:37;15.30;99.90
56137;DHT22;42008;52.934;5.884;2022-10-16T07:07:02;14.10;99.90
56137;DHT22;42008;52.934;5.884;2022-10-16T07:09:28;14.00;99.90
56137;DHT22;42008;52.934;5.884;2022-10-16T07:11:54;15.70;99.90
56137;DHT22;42008;52.934;5.884;2022-10-16T07:14:21;14.00;99.90
56137;DHT22;42008;52.934;5.884;2022-10-16T07:16:47;15.40;99.90
56137;DHT22;42008;52.934;5.884;2022-10-16T07:19:14;15.50;99.90
56137;DHT22;42008;52.934;5.884;2022-10-16T07:21:41;14.20;99.90
56137;DHT22;42008;52.934;5.884;2022-10-16T07:24:12;15.70;99.90
56137;DHT22;42008;52.934;5.884;2022-10-16T07:26:39;16.60;99.90
56137;DHT22;42008;52.934;5.884;2022-10-16T07:29:13;15.30;99.90
56137;DHT22;42008;52.934;5.884;2022-10-16T07:31:39;15.70;99.90
56137;DHT22;42008;52.934;5.884;2022-10-16T07:34:05;15.70;99.90
56137;DHT22;42008;52.934;5.884;2022-10-16T07:36:31;15.80;99.90
56137;DHT22;42008;52.934;5.884;2022-10-16T07:38:56;15.50;99.90
56137;DHT22;42008;52.934;5.884;2022-10-16T07:41:22;15.60;99.90
56137;DHT22;42008;52.934;5.884;2022-10-16T07:43:50;15.30;99.90
56137;DHT22;42008;52.934;5.884;2022-10-16T07:46:16;15.60;99.90
56137;DHT22;42008;52.934;5.884;2022-10-16T07:48:43;15.70;99.90
56137;DHT22;42008;52.934;5.884;2022-10-16T07:51:16;16.70;99.90
56137;DHT22;42008;52.934;5.884;2022-10-16T07:53:42;14.00;99.90
56137;DHT22;42008;52.934;5.884;2022-10-16T07:56:08;15.60;99.90
56137;DHT22;42008;52.934;5.884;2022-10-16T07:58:34;15.10;99.90
56137;DHT22;42008;52.934;5.884;2022-10-16T08:01:07;15.10;99.90
56137;DHT22;42008;52.934;5.884;2022-10-16T08:03:33;15.30;99.90
56137;DHT22;42008;52.934;5.884;2022-10-16T08:05:59;15.70;99.90
56137;DHT22;42008;52.934;5.884;2022-10-16T08:08:26;15.60;99.90
56137;DHT22;42008;52.934;5.884;2022-10-16T08:10:52;15.30;99.90
56137;DHT22;42008;52.934;5.884;2022-10-16T08:13:18;15.00;99.90
56137;DHT22;42008;52.934;5.884;2022-10-16T08:15:44;15.10;99.90
56137;DHT22;42008;52.934;5.884;2022-10-16T08:18:11;15.20;99.90
56137;DHT22;42008;52.934;5.884;2022-10-16T08:20:37;15.30;99.90
56137;DHT22;42008;52.934;5.884;2022-10-16T08:23:03;15.80;99.90
56137;DHT22;42008;52.934;5.884;2022-10-16T08:25:29;15.40;99.90
56137;DHT22;42008;52.934;5.884;2022-10-16T08:27:55;15.70;99.90
56137;DHT22;42008;52.934;5.884;2022-10-16T08:30:22;15.30;99.90
56137;DHT22;42008;52.934;5.884;2022-10-16T08:32:48;15.30;99.90
56137;DHT22;42008;52.934;5.884;2022-10-16T08:35:14;15.50;99.90
56137;DHT22;42008;52.934;5.884;2022-10-16T08:37:40;15.10;99.90
56137;DHT22;42008;52.934;5.884;2022-10-16T08:40:10;15.50;99.90
56137;DHT22;42008;52.934;5.884;2022-10-16T08:43:01;15.00;99.90
56137;DHT22;42008;52.934;5.884;2022-10-16T08:48:50;14.80;99.90
56137;DHT22;42008;52.934;5.884;2022-10-16T08:51:23;15.10;99.90
56137;DHT22;42008;52.934;5.884;2022-10-16T08:54:04;16.40;99.90
56137;DHT22;42008;52.934;5.884;2022-10-16T08:56:30;14.80;99.90
56137;DHT22;42008;52.934;5.884;2022-10-16T08:58:58;15.40;99.90
56137;DHT22;42008;52.934;5.884;2022-10-16T09:01:32;15.50;99.90
56137;DHT22;42008;52.934;5.884;2022-10-16T09:06:54;15.70;99.90
56137;DHT22;42008;52.934;5.884;2022-10-16T09:10:41;15.40;99.90
56137;DHT22;42008;52.934;5.884;2022-10-16T09:12:40;16.50;99.90
56137;DHT22;42008;52.934;5.884;2022-10-16T09:15:28;16.20;99.90
56137;DHT22;42008;52.934;5.884;2022-10-16T09:25:34;14.70;99.90
56137;DHT22;42008;52.934;5.884;2022-10-16T09:28:00;15.80;99.90
56137;DHT22;42008;52.934;5.884;2022-10-16T09:30:28;16.40;99.90
56137;DHT22;42008;52.934;5.884;2022-10-16T09:32:55;15.90;99.90
56137;DHT22;42008;52.934;5.884;2022-10-16T09:35:31;15.50;99.90
56137;DHT22;42008;52.934;5.884;2022-10-16T09:37:58;16.50;99.90
56137;DHT22;42008;52.934;5.884;2022-10-16T09:40:33;16.80;99.90
56137;DHT22;42008;52.934;5.884;2022-10-16T09:43:12;16.30;99.90
56137;DHT22;42008;52.934;5.884;2022-10-16T09:45:42;15.60;99.90
56137;DHT22;42008;52.934;5.884;2022-10-16T09:48:12;15.50;99.90
56137;DHT22;42008;52.934;5.884;2022-10-16T09:50:38;15.60;99.90
56137;DHT22;42008;52.934;5.884;2022-10-16T09:53:14;15.60;99.90
56137;DHT22;42008;52.934;5.884;2022-10-16T09:55:50;17.00;99.90
56137;DHT22;42008;52.934;5.884;2022-10-16T09:58:16;15.80;99.90
56137;DHT22;42008;52.934;5.884;2022-10-16T10:00:49;16.00;99.90
56137;DHT22;42008;52.934;5.884;2022-10-16T10:03:40;17.10;99.90
56137;DHT22;42008;52.934;5.884;2022-10-16T10:06:21;16.90;99.90
56137;DHT22;42008;52.934;5.884;2022-10-16T10:08:58;16.60;99.90
56137;DHT22;42008;52.934;5.884;2022-10-16T10:17:26;16.90;99.90
56137;DHT22;42008;52.934;5.884;2022-10-16T10:19:54;16.60;99.90
56137;DHT22;42008;52.934;5.884;2022-10-16T10:25:26;17.10;99.90
56137;DHT22;42008;52.934;5.884;2022-10-16T10:38:39;17.00;99.90
56137;DHT22;42008;52.934;5.884;2022-10-16T10:49:39;17.30;99.90
56137;DHT22;42008;52.934;5.884;2022-10-16T10:57:28;18.30;99.90
56137;DHT22;42008;52.934;5.884;2022-10-16T11:00:03;17.70;99.90
56137;DHT22;42008;52.934;5.884;2022-10-16T11:03:04;17.10;99.90
56137;DHT22;42008;52.934;5.884;2022-10-16T11:13:20;17.80;99.90
56137;DHT22;42008;52.934;5.884;2022-10-16T11:15:48;17.80;99.90
56137;DHT22;42008;52.934;5.884;2022-10-16T11:18:38;17.50;99.90
56137;DHT22;42008;52.934;5.884;2022-10-16T11:21:10;17.10;99.90
56137;DHT22;42008;52.934;5.884;2022-10-16T11:26:21;16.90;99.90
56137;DHT22;42008;52.934;5.884;2022-10-16T11:28:51;17.70;99.90
56137;DHT22;42008;52.934;5.884;2022-10-16T11:31:29;17.90;99.90
56137;DHT22;42008;52.934;5.884;2022-10-16T11:37:03;17.40;99.90
56137;DHT22;42008;52.934;5.884;2022-10-16T11:39:31;18.10;99.90
56137;DHT22;42008;52.934;5.884;2022-10-16T11:42:03;18.90;99.90
56137;DHT22;42008;52.934;5.884;2022-10-16T11:44:54;17.80;99.90
56137;DHT22;42008;52.934;5.884;2022-10-16T11:47:35;17.50;99.90
56137;DHT22;42008;52.934;5.884;2022-10-16T11:50:13;17.40;99.90
56137;DHT22;42008;52.934;5.884;2022-10-16T11:55:29;18.60;99.90
56137;DHT22;42008;52.934;5.884;2022-10-16T11:58:12;19.10;99.90
56137;DHT22;42008;52.934;5.884;2022-10-16T12:08:26;17.80;99.90
56137;DHT22;42008;52.934;5.884;2022-10-16T12:10:52;19.60;99.90
56137;DHT22;42008;52.934;5.884;2022-10-16T12:18:39;18.70;99.90
56137;DHT22;42008;52.934;5.884;2022-10-16T12:21:06;20.00;99.90
56137;DHT22;42008;52.934;5.884;2022-10-16T12:23:36;19.70;99.90
56137;DHT22;42008;52.934;5.884;2022-10-16T12:26:04;20.10;99.90
56137;DHT22;42008;52.934;5.884;2022-10-16T12:28:31;19.80;99.90
56137;DHT22;42008;52.934;5.884;2022-10-16T12:31:03;18.60;99.90
56137;DHT22;42008;52.934;5.884;2022-10-16T12:33:33;20.10;99.90
56137;DHT22;42008;52.934;5.884;2022-10-16T12:36:02;20.20;99.90
56137;DHT22;42008;52.934;5.884;2022-10-16T12:38:50;20.90;99.90
56137;DHT22;42008;52.934;5.884;2022-10-16T12:41:30;20.10;99.90
56137;DHT22;42008;52.934;5.884;2022-10-16T12:43:56;20.60;99.90
56137;DHT22;42008;52.934;5.884;2022-10-16T12:46:23;18.70;99.90
56137;DHT22;42008;52.934;5.884;2022-10-16T12:48:49;20.40;99.90
56137;DHT22;42008;52.934;5.884;2022-10-16T13:04:46;22.80;1.00
56137;DHT22;42008;52.934;5.884;2022-10-16T13:10:14;22.30;1.00
56137;DHT22;42008;52.934;5.884;2022-10-16T13:12:46;20.60;1.00
56137;DHT22;42008;52.934;5.884;2022-10-16T13:15:37;22.30;1.00
56137;DHT22;42008;52.934;5.884;2022-10-16T13:18:33;22.30;1.00
56137;DHT22;42008;52.934;5.884;2022-10-16T13:24:16;23.30;1.00
56137;DHT22;42008;52.934;5.884;2022-10-16T13:27:07;23.00;1.00
56137;DHT22;42008;52.934;5.884;2022-10-16T13:29:36;22.80;1.00
56137;DHT22;42008;52.934;5.884;2022-10-16T13:32:07;23.80;1.00
56137;DHT22;42008;52.934;5.884;2022-10-16T13:34:47;21.10;1.00
56137;DHT22;42008;52.934;5.884;2022-10-16T13:37:22;22.70;1.00
56137;DHT22;42008;52.934;5.884;2022-10-16T13:39:48;23.30;1.00
56137;DHT22;42008;52.934;5.884;2022-10-16T13:42:27;22.60;1.00
56137;DHT22;42008;52.934;5.884;2022-10-16T13:44:55;23.60;1.00
56137;DHT22;42008;52.934;5.884;2022-10-16T13:47:23;21.60;1.00
56137;DHT22;42008;52.934;5.884;2022-10-16T13:50:11;20.60;1.00
56137;DHT22;42008;52.934;5.884;2022-10-16T13:52:37;20.90;1.00
56137;DHT22;42008;52.934;5.884;2022-10-16T13:55:09;21.30;1.00
56137;DHT22;42008;52.934;5.884;2022-10-16T13:57:35;22.20;1.00
56137;DHT22;42008;52.934;5.884;2022-10-16T14:00:01;22.80;1.00
56137;DHT22;42008;52.934;5.884;2022-10-16T14:02:31;21.40;1.00
56137;DHT22;42008;52.934;5.884;2022-10-16T14:04:57;21.50;1.00
56137;DHT22;42008;52.934;5.884;2022-10-16T14:07:28;23.90;1.00
56137;DHT22;42008;52.934;5.884;2022-10-16T14:09:55;23.40;1.00
56137;DHT22;42008;52.934;5.884;2022-10-16T14:12:22;23.00;1.00
56137;DHT22;42008;52.934;5.884;2022-10-16T14:14:51;22.50;1.00
56137;DHT22;42008;52.934;5.884;2022-10-16T14:17:31;23.40;1.00
56137;DHT22;42008;52.934;5.884;2022-10-16T14:19:59;21.90;1.00
56137;DHT22;42008;52.934;5.884;2022-10-16T14:22:29;20.80;1.00
56137;DHT22;42008;52.934;5.884;2022-10-16T14:24:56;19.90;1.00
56137;DHT22;42008;52.934;5.884;2022-10-16T14:27:33;19.60;1.00
56137;DHT22;42008;52.934;5.884;2022-10-16T14:30:26;20.00;1.00
56137;DHT22;42008;52.934;5.884;2022-10-16T14:33:03;20.30;1.00
56137;DHT22;42008;52.934;5.884;2022-10-16T14:37:59;18.90;1.00
56137;DHT22;42008;52.934;5.884;2022-10-16T14:40:33;18.10;1.00
56137;DHT22;42008;52.934;5.884;2022-10-16T14:43:01;18.00;53.00
56137;DHT22;42008;52.934;5.884;2022-10-16T14:45:30;18.10;35.00
56137;DHT22;42008;52.934;5.884;2022-10-16T14:47:58;18.70;31.70
56137;DHT22;42008;52.934;5.884;2022-10-16T14:50:25;17.70;19.60
56137;DHT22;42008;52.934;5.884;2022-10-16T14:52:51;18.80;9.60
56137;DHT22;42008;52.934;5.884;2022-10-16T14:55:17;18.10;1.00
56137;DHT22;42008;52.934;5.884;2022-10-16T14:57:44;18.30;7.80
56137;DHT22;42008;52.934;5.884;2022-10-16T15:00:21;18.90;1.00
56137;DHT22;42008;52.934;5.884;2022-10-16T15:02:49;17.50;1.00
56137;DHT22;42008;52.934;5.884;2022-10-16T15:07:40;17.50;5.10
56137;DHT22;42008;52.934;5.884;2022-10-16T15:10:06;17.70;45.50
56137;DHT22;42008;52.934;5.884;2022-10-16T15:12:32;18.60;64.40
56137;DHT22;42008;52.934;5.884;2022-10-16T15:14:58;17.40;74.90
56137;DHT22;42008;52.934;5.884;2022-10-16T15:17:23;16.80;99.90
56137;DHT22;42008;52.934;5.884;2022-10-16T15:19:49;17.40;99.90
56137;DHT22;42008;52.934;5.884;2022-10-16T15:22:14;17.60;99.90
56137;DHT22;42008;52.934;5.884;2022-10-16T15:24:40;17.50;99.90
56137;DHT22;42008;52.934;5.884;2022-10-16T15:27:05;18.50;99.90
56137;DHT22;42008;52.934;5.884;2022-10-16T15:29:31;17.40;99.90
56137;DHT22;42008;52.934;5.884;2022-10-16T15:31:57;17.50;99.90
56137;DHT22;42008;52.934;5.884;2022-10-16T15:34:22;17.50;99.90
56137;DHT22;42008;52.934;5.884;2022-10-16T15:36:48;17.00;99.90
56137;DHT22;42008;52.934;5.884;2022-10-16T15:39:16;17.60;99.90
56137;DHT22;42008;52.934;5.884;2022-10-16T15:41:44;17.40;99.90
56137;DHT22;42008;52.934;5.884;2022-10-16T15:44:10;17.30;99.90
56137;DHT22;42008;52.934;5.884;2022-10-16T15:46:36;17.40;99.90
56137;DHT22;42008;52.934;5.884;2022-10-16T15:49:02;17.20;99.90
56137;DHT22;42008;52.934;5.884;2022-10-16T15:51:28;17.00;99.90
56137;DHT22;42008;52.934;5.884;2022-10-16T15:53:58;15.90;99.90
56137;DHT22;42008;52.934;5.884;2022-10-16T15:56:24;17.40;99.90
56137;DHT22;42008;52.934;5.884;2022-10-16T15:58:52;17.10;99.90
56137;DHT22;42008;52.934;5.884;2022-10-16T16:01:18;17.40;99.90
56137;DHT22;42008;52.934;5.884;2022-10-16T16:03:44;16.90;99.90
56137;DHT22;42008;52.934;5.884;2022-10-16T16:06:11;16.80;99.90
56137;DHT22;42008;52.934;5.884;2022-10-16T16:08:37;15.40;99.90
56137;DHT22;42008;52.934;5.884;2022-10-16T16:11:08;15.40;99.90
56137;DHT22;42008;52.934;5.884;2022-10-16T16:13:34;15.20;99.90
56137;DHT22;42008;52.934;5.884;2022-10-16T16:16:00;15.20;99.90
56137;DHT22;42008;52.934;5.884;2022-10-16T16:18:26;15.30;99.90
56137;DHT22;42008;52.934;5.884;2022-10-16T16:20:53;15.20;99.90
56137;DHT22;42008;52.934;5.884;2022-10-16T16:23:20;15.30;99.90
56137;DHT22;42008;52.934;5.884;2022-10-16T16:28:37;15.80;99.90
56137;DHT22;42008;52.934;5.884;2022-10-16T16:31:03;14.90;99.90
56137;DHT22;42008;52.934;5.884;2022-10-16T16:33:29;15.70;99.90
56137;DHT22;42008;52.934;5.884;2022-10-16T16:35:57;14.70;99.90
56137;DHT22;42008;52.934;5.884;2022-10-16T16:38:23;14.80;99.90
56137;DHT22;42008;52.934;5.884;2022-10-16T16:40:49;14.90;99.90
56137;DHT22;42008;52.934;5.884;2022-10-16T16:43:14;14.80;99.90
56137;DHT22;42008;52.934;5.884;2022-10-16T16:45:40;15.30;99.90
56137;DHT22;42008;52.934;5.884;2022-10-16T16:48:05;14.80;99.90
56137;DHT22;42008;52.934;5.884;2022-10-16T16:50:35;15.40;99.90
56137;DHT22;42008;52.934;5.884;2022-10-16T16:53:01;14.50;99.90
56137;DHT22;42008;52.934;5.884;2022-10-16T16:55:27;14.90;99.90
56137;DHT22;42008;52.934;5.884;2022-10-16T16:57:52;14.50;99.90
56137;DHT22;42008;52.934;5.884;2022-10-16T17:00:18;15.00;99.90
56137;DHT22;42008;52.934;5.884;2022-10-16T17:02:43;14.60;99.90
56137;DHT22;42008;52.934;5.884;2022-10-16T17:05:10;15.20;99.90
56137;DHT22;42008;52.934;5.884;2022-10-16T17:07:35;15.00;99.90
56137;DHT22;42008;52.934;5.884;2022-10-16T17:10:02;13.70;99.90
56137;DHT22;42008;52.934;5.884;2022-10-16T17:12:29;14.80;99.90
56137;DHT22;42008;52.934;5.884;2022-10-16T17:14:55;13.00;99.90
56137;DHT22;42008;52.934;5.884;2022-10-16T17:17:21;13.00;99.90
56137;DHT22;42008;52.934;5.884;2022-10-16T17:19:48;13.50;99.90
56137;DHT22;42008;52.934;5.884;2022-10-16T17:22:14;12.90;99.90
56137;DHT22;42008;52.934;5.884;2022-10-16T17:24:39;14.40;99.90
56137;DHT22;42008;52.934;5.884;2022-10-16T17:27:05;13.20;99.90
56137;DHT22;42008;52.934;5.884;2022-10-16T17:29:30;13.10;99.90
56137;DHT22;42008;52.934;5.884;2022-10-16T17:31:56;14.30;99.90
56137;DHT22;42008;52.934;5.884;2022-10-16T17:34:23;14.50;99.90
56137;DHT22;42008;52.934;5.884;2022-10-16T17:36:49;13.10;99.90